sensor_id;sensor_type;location;lat;lon;timestamp;temperature;humidity
8684;DHT22;4379;59.744;18.206;2023-05-10T00:01:15;6.60;99.90
8684;DHT22;4379;59.744;18.206;2023-05-10T00:03:42;6.60;99.90
8684;DHT22;4379;59.744;18.206;2023-05-10T00:06:10;6.50;99.90
8684;DHT22;4379;59.744;18.206;2023-05-10T00:08:38;6.40;99.90
8684;DHT22;4379;59.744;18.206;2023-05-10T00:11:05;6.40;99.90
8684;DHT22;4379;59.744;18.206;2023-05-10T00:13:32;6.30;99.90
8684;DHT22;4379;59.744;18.206;2023-05-10T00:16:00;6.30;99.90
8684;DHT22;4379;59.744;18.206;2023-05-10T00:18:28;6.30;99.90
8684;DHT22;4379;59.744;18.206;2023-05-10T00:20:57;6.30;99.90
8684;DHT22;4379;59.744;18.206;2023-05-10T00:23:28;6.20;99.90
8684;DHT22;4379;59.744;18.206;2023-05-10T00:25:56;6.10;99.90
8684;DHT22;4379;59.744;18.206;2023-05-10T00:28:30;6.20;99.90
8684;DHT22;4379;59.744;18.206;2023-05-10T00:30:58;6.20;99.90
8684;DHT22;4379;59.744;18.206;2023-05-10T00:33:26;6.30;99.90
8684;DHT22;4379;59.744;18.206;2023-05-10T00:35:54;6.20;99.90
8684;DHT22;4379;59.744;18.206;2023-05-10T00:38:21;6.10;99.90
8684;DHT22;4379;59.744;18.206;2023-05-10T00:40:49;6.00;99.90
8684;DHT22;4379;59.744;18.206;2023-05-10T00:43:16;5.90;99.90
8684;DHT22;4379;59.744;18.206;2023-05-10T00:45:44;5.80;99.90
8684;DHT22;4379;59.744;18.206;2023-05-10T00:48:14;5.80;99.90
8684;DHT22;4379;59.744;18.206;2023-05-10T00:51:02;5.70;99.90
8684;DHT22;4379;59.744;18.206;2023-05-10T00:53:31;5.60;99.90
8684;DHT22;4379;59.744;18.206;2023-05-10T00:56:00;5.60;99.90
8684;DHT22;4379;59.744;18.206;2023-05-10T00:58:28;5.60;99.90
8684;DHT22;4379;59.744;18.206;2023-05-10T01:00:58;5.50;99.90
8684;DHT22;4379;59.744;18.206;2023-05-10T01:03:28;5.50;99.90
8684;DHT22;4379;59.744;18.206;2023-05-10T01:05:56;5.50;99.90
8684;DHT22;4379;59.744;18.206;2023-05-10T01:08:24;5.40;99.90
8684;DHT22;4379;59.744;18.206;2023-05-10T01:10:52;5.40;99.90
8684;DHT22;4379;59.744;18.206;2023-05-10T01:15:59;5.30;99.90
8684;DHT22;4379;59.744;18.206;2023-05-10T01:18:30;5.30;99.90
8684;DHT22;4379;59.744;18.206;2023-05-10T01:21:33;5.20;99.90
8684;DHT22;4379;59.744;18.206;2023-05-10T01:24:18;5.10;99.90
8684;DHT22;4379;59.744;18.206;2023-05-10T01:32:16;4.90;99.90
8684;DHT22;4379;59.744;18.206;2023-05-10T01:35:19;4.90;99.90
8684;DHT22;4379;59.744;18.206;2023-05-10T01:38:07;4.80;99.90
8684;DHT22;4379;59.744;18.206;2023-05-10T01:43:32;4.70;99.90
8684;DHT22;4379;59.744;18.206;2023-05-10T01:46:16;4.70;99.90
8684;DHT22;4379;59.744;18.206;2023-05-10T01:48:50;4.70;99.90
8684;DHT22;4379;59.744;18.206;2023-05-10T01:51:23;4.50;99.90
8684;DHT22;4379;59.744;18.206;2023-05-10T01:53:56;4.50;99.90
8684;DHT22;4379;59.744;18.206;2023-05-10T01:56:28;4.40;99.90
8684;DHT22;4379;59.744;18.206;2023-05-10T01:58:57;4.40;99.90
8684;DHT22;4379;59.744;18.206;2023-05-10T02:01:27;4.30;99.90
8684;DHT22;4379;59.744;18.206;2023-05-10T02:03:56;4.20;99.90
8684;DHT22;4379;59.744;18.206;2023-05-10T02:06:25;4.10;99.90
8684;DHT22;4379;59.744;18.206;2023-05-10T02:08:53;4.10;99.90
8684;DHT22;4379;59.744;18.206;2023-05-10T02:11:21;4.10;99.90
8684;DHT22;4379;59.744;18.206;2023-05-10T02:13:51;4.00;99.90
8684;DHT22;4379;59.744;18.206;2023-05-10T02:16:23;3.90;99.90
8684;DHT22;4379;59.744;18.206;2023-05-10T02:18:53;3.90;99.90
8684;DHT22;4379;59.744;18.206;2023-05-10T02:21:21;3.80;99.90
8684;DHT22;4379;59.744;18.206;2023-05-10T02:23:57;3.80;99.90
8684;DHT22;4379;59.744;18.206;2023-05-10T02:26:26;3.80;99.90
8684;DHT22;4379;59.744;18.206;2023-05-10T02:28:54;3.80;99.90
8684;DHT22;4379;59.744;18.206;2023-05-10T02:31:25;3.70;99.90
8684;DHT22;4379;59.744;18.206;2023-05-10T02:33:54;3.60;99.90
8684;DHT22;4379;59.744;18.206;2023-05-10T02:36:23;3.60;99.90
8684;DHT22;4379;59.744;18.206;2023-05-10T02:38:51;3.60;99.90
8684;DHT22;4379;59.744;18.206;2023-05-10T02:41:21;3.60;99.90
8684;DHT22;4379;59.744;18.206;2023-05-10T02:43:51;3.60;99.90
8684;DHT22;4379;59.744;18.206;2023-05-10T02:46:19;3.60;99.90
8684;DHT22;4379;59.744;18.206;2023-05-10T02:48:47;3.50;99.90
8684;DHT22;4379;59.744;18.206;2023-05-10T02:51:15;3.60;99.90
8684;DHT22;4379;59.744;18.206;2023-05-10T02:53:46;3.60;99.90
8684;DHT22;4379;59.744;18.206;2023-05-10T02:56:36;3.60;99.90
8684;DHT22;4379;59.744;18.206;2023-05-10T02:59:07;3.60;99.90
8684;DHT22;4379;59.744;18.206;2023-05-10T03:01:34;3.60;99.90
8684;DHT22;4379;59.744;18.206;2023-05-10T03:04:03;3.60;99.90
8684;DHT22;4379;59.744;18.206;2023-05-10T03:06:30;3.60;99.90
8684;DHT22;4379;59.744;18.206;2023-05-10T03:08:58;3.60;99.90
8684;DHT22;4379;59.744;18.206;2023-05-10T03:17:25;3.80;99.90
8684;DHT22;4379;59.744;18.206;2023-05-10T03:19:58;3.80;99.90
8684;DHT22;4379;59.744;18.206;2023-05-10T03:22:39;3.90;99.90
8684;DHT22;4379;59.744;18.206;2023-05-10T03:25:10;4.00;99.90
8684;DHT22;4379;59.744;18.206;2023-05-10T03:27:40;4.00;99.90
8684;DHT22;4379;59.744;18.206;2023-05-10T03:30:32;4.00;99.90
8684;DHT22;4379;59.744;18.206;2023-05-10T03:33:20;4.00;99.90
8684;DHT22;4379;59.744;18.206;2023-05-10T03:35:48;4.20;99.90
8684;DHT22;4379;59.744;18.206;2023-05-10T03:38:16;4.20;99.90
8684;DHT22;4379;59.744;18.206;2023-05-10T03:40:46;4.30;99.90
8684;DHT22;4379;59.744;18.206;2023-05-10T03:43:13;4.40;99.90
8684;DHT22;4379;59.744;18.206;2023-05-10T03:45:41;4.40;99.90
8684;DHT22;4379;59.744;18.206;2023-05-10T03:48:08;4.60;99.90
8684;DHT22;4379;59.744;18.206;2023-05-10T03:50:35;4.60;99.90
8684;DHT22;4379;59.744;18.206;2023-05-10T03:53:03;4.80;99.90
8684;DHT22;4379;59.744;18.206;2023-05-10T03:55:36;5.00;99.90
8684;DHT22;4379;59.744;18.206;2023-05-10T03:58:03;5.50;99.90
8684;DHT22;4379;59.744;18.206;2023-05-10T04:00:34;6.50;99.90
8684;DHT22;4379;59.744;18.206;2023-05-10T04:03:02;7.70;99.90
8684;DHT22;4379;59.744;18.206;2023-05-10T04:05:30;8.10;99.90
8684;DHT22;4379;59.744;18.206;2023-05-10T04:08:00;8.80;99.90
8684;DHT22;4379;59.744;18.206;2023-05-10T04:10:27;8.90;99.90
8684;DHT22;4379;59.744;18.206;2023-05-10T04:13:11;8.80;99.90
8684;DHT22;4379;59.744;18.206;2023-05-10T04:15:41;9.60;99.90
8684;DHT22;4379;59.744;18.206;2023-05-10T04:18:17;10.30;99.90
8684;DHT22;4379;59.744;18.206;2023-05-10T04:20:44;10.20;99.90
8684;DHT22;4379;59.744;18.206;2023-05-10T04:23:12;10.20;99.90
8684;DHT22;4379;59.744;18.206;2023-05-10T04:25:41;10.60;99.90
8684;DHT22;4379;59.744;18.206;2023-05-10T04:28:09;11.20;99.90
8684;DHT22;4379;59.744;18.206;2023-05-10T04:30:36;11.40;99.90
8684;DHT22;4379;59.744;18.206;2023-05-10T04:33:04;11.50;99.90
8684;DHT22;4379;59.744;18.206;2023-05-10T04:35:32;12.00;99.90
8684;DHT22;4379;59.744;18.206;2023-05-10T04:38:00;12.60;99.90
8684;DHT22;4379;59.744;18.206;2023-05-10T04:40:27;12.50;99.90
8684;DHT22;4379;59.744;18.206;2023-05-10T04:42:55;12.00;99.90
8684;DHT22;4379;59.744;18.206;2023-05-10T04:45:23;11.80;99.90
8684;DHT22;4379;59.744;18.206;2023-05-10T04:47:50;11.70;99.90
8684;DHT22;4379;59.744;18.206;2023-05-10T04:50:17;11.70;99.90
8684;DHT22;4379;59.744;18.206;2023-05-10T04:52:45;12.20;99.90
8684;DHT22;4379;59.744;18.206;2023-05-10T04:55:13;12.50;99.90
8684;DHT22;4379;59.744;18.206;2023-05-10T04:57:41;13.10;99.90
8684;DHT22;4379;59.744;18.206;2023-05-10T05:00:09;13.20;99.90
8684;DHT22;4379;59.744;18.206;2023-05-10T05:02:46;13.60;99.90
8684;DHT22;4379;59.744;18.206;2023-05-10T05:05:15;13.60;99.90
8684;DHT22;4379;59.744;18.206;2023-05-10T05:07:44;13.70;99.90
8684;DHT22;4379;59.744;18.206;2023-05-10T05:10:13;13.70;99.90
8684;DHT22;4379;59.744;18.206;2023-05-10T05:12:41;13.90;99.90
8684;DHT22;4379;59.744;18.206;2023-05-10T05:15:09;15.60;99.90
8684;DHT22;4379;59.744;18.206;2023-05-10T05:17:36;17.80;99.90
8684;DHT22;4379;59.744;18.206;2023-05-10T05:20:04;20.00;99.90
8684;DHT22;4379;59.744;18.206;2023-05-10T05:22:33;22.20;98.00
8684;DHT22;4379;59.744;18.206;2023-05-10T05:25:03;22.60;95.60
8684;DHT22;4379;59.744;18.206;2023-05-10T05:27:31;23.70;94.20
8684;DHT22;4379;59.744;18.206;2023-05-10T05:29:59;24.50;94.20
8684;DHT22;4379;59.744;18.206;2023-05-10T05:32:27;24.70;91.80
8684;DHT22;4379;59.744;18.206;2023-05-10T05:34:55;24.90;91.80
8684;DHT22;4379;59.744;18.206;2023-05-10T05:37:22;27.30;90.60
8684;DHT22;4379;59.744;18.206;2023-05-10T05:39:51;29.30;87.40
8684;DHT22;4379;59.744;18.206;2023-05-10T05:42:19;28.40;87.40
8684;DHT22;4379;59.744;18.206;2023-05-10T05:44:47;30.30;84.30
8684;DHT22;4379;59.744;18.206;2023-05-10T05:47:14;28.00;82.90
8684;DHT22;4379;59.744;18.206;2023-05-10T05:49:42;26.80;84.80
8684;DHT22;4379;59.744;18.206;2023-05-10T05:52:09;27.40;85.10
8684;DHT22;4379;59.744;18.206;2023-05-10T05:54:37;27.30;83.60
8684;DHT22;4379;59.744;18.206;2023-05-10T05:57:07;27.30;85.00
8684;DHT22;4379;59.744;18.206;2023-05-10T05:59:34;27.60;83.00
8684;DHT22;4379;59.744;18.206;2023-05-10T06:02:22;29.20;81.40
8684;DHT22;4379;59.744;18.206;2023-05-10T06:04:50;29.10;80.90
8684;DHT22;4379;59.744;18.206;2023-05-10T06:07:18;28.70;82.50
8684;DHT22;4379;59.744;18.206;2023-05-10T06:09:45;27.20;83.60
8684;DHT22;4379;59.744;18.206;2023-05-10T06:12:13;27.70;82.60
8684;DHT22;4379;59.744;18.206;2023-05-10T06:14:40;29.60;82.80
8684;DHT22;4379;59.744;18.206;2023-05-10T06:17:11;28.70;80.80
8684;DHT22;4379;59.744;18.206;2023-05-10T06:19:39;31.00;79.40
8684;DHT22;4379;59.744;18.206;2023-05-10T06:22:09;30.60;79.30
8684;DHT22;4379;59.744;18.206;2023-05-10T06:24:37;32.80;78.30
8684;DHT22;4379;59.744;18.206;2023-05-10T06:27:05;33.10;75.20
8684;DHT22;4379;59.744;18.206;2023-05-10T06:29:33;30.50;76.20
8684;DHT22;4379;59.744;18.206;2023-05-10T06:32:00;32.60;76.80
8684;DHT22;4379;59.744;18.206;2023-05-10T06:34:38;33.20;75.30
8684;DHT22;4379;59.744;18.206;2023-05-10T06:37:23;31.60;76.30
8684;DHT22;4379;59.744;18.206;2023-05-10T06:39:50;34.00;73.30
8684;DHT22;4379;59.744;18.206;2023-05-10T06:42:18;34.70;73.40
8684;DHT22;4379;59.744;18.206;2023-05-10T06:44:46;35.50;72.70
8684;DHT22;4379;59.744;18.206;2023-05-10T06:47:13;35.10;73.20
8684;DHT22;4379;59.744;18.206;2023-05-10T06:49:40;35.90;70.70
8684;DHT22;4379;59.744;18.206;2023-05-10T06:52:10;36.90;69.60
8684;DHT22;4379;59.744;18.206;2023-05-10T06:54:43;36.20;70.00
8684;DHT22;4379;59.744;18.206;2023-05-10T06:57:11;33.90;71.40
8684;DHT22;4379;59.744;18.206;2023-05-10T06:59:57;33.50;71.10
8684;DHT22;4379;59.744;18.206;2023-05-10T07:02:25;33.90;71.00
8684;DHT22;4379;59.744;18.206;2023-05-10T07:04:53;34.50;69.60
8684;DHT22;4379;59.744;18.206;2023-05-10T07:07:22;34.10;69.30
8684;DHT22;4379;59.744;18.206;2023-05-10T07:09:49;35.40;70.80
8684;DHT22;4379;59.744;18.206;2023-05-10T07:12:17;35.80;69.40
8684;DHT22;4379;59.744;18.206;2023-05-10T07:14:45;35.60;67.60
8684;DHT22;4379;59.744;18.206;2023-05-10T07:17:13;35.50;66.90
8684;DHT22;4379;59.744;18.206;2023-05-10T07:19:41;32.50;69.10
8684;DHT22;4379;59.744;18.206;2023-05-10T07:22:09;34.20;69.30
8684;DHT22;4379;59.744;18.206;2023-05-10T07:24:37;35.70;68.40
8684;DHT22;4379;59.744;18.206;2023-05-10T07:27:05;35.80;66.10
8684;DHT22;4379;59.744;18.206;2023-05-10T07:29:33;35.70;66.60
8684;DHT22;4379;59.744;18.206;2023-05-10T07:32:00;37.30;66.20
8684;DHT22;4379;59.744;18.206;2023-05-10T07:34:28;36.40;65.70
8684;DHT22;4379;59.744;18.206;2023-05-10T07:37:00;36.90;66.10
8684;DHT22;4379;59.744;18.206;2023-05-10T07:39:28;36.00;67.00
8684;DHT22;4379;59.744;18.206;2023-05-10T07:41:55;34.90;68.20
8684;DHT22;4379;59.744;18.206;2023-05-10T07:44:23;35.40;66.10
8684;DHT22;4379;59.744;18.206;2023-05-10T07:46:51;32.40;68.60
8684;DHT22;4379;59.744;18.206;2023-05-10T07:49:19;33.20;69.10
8684;DHT22;4379;59.744;18.206;2023-05-10T07:51:47;34.20;69.00
8684;DHT22;4379;59.744;18.206;2023-05-10T07:54:17;32.80;69.00
8684;DHT22;4379;59.744;18.206;2023-05-10T07:56:46;31.80;69.10
8684;DHT22;4379;59.744;18.206;2023-05-10T07:59:17;30.90;69.20
8684;DHT22;4379;59.744;18.206;2023-05-10T08:01:47;32.90;70.20
8684;DHT22;4379;59.744;18.206;2023-05-10T08:04:17;33.90;65.90
8684;DHT22;4379;59.744;18.206;2023-05-10T08:06:44;33.30;67.80
8684;DHT22;4379;59.744;18.206;2023-05-10T08:09:12;34.00;68.50
8684;DHT22;4379;59.744;18.206;2023-05-10T08:11:40;34.90;67.40
8684;DHT22;4379;59.744;18.206;2023-05-10T08:14:08;34.00;66.30
8684;DHT22;4379;59.744;18.206;2023-05-10T08:16:35;34.00;67.00
8684;DHT22;4379;59.744;18.206;2023-05-10T08:19:02;32.30;69.30
8684;DHT22;4379;59.744;18.206;2023-05-10T08:21:30;32.60;67.30
8684;DHT22;4379;59.744;18.206;2023-05-10T08:23:58;32.80;68.20
8684;DHT22;4379;59.744;18.206;2023-05-10T08:26:26;30.90;68.70
8684;DHT22;4379;59.744;18.206;2023-05-10T08:28:56;29.90;69.40
8684;DHT22;4379;59.744;18.206;2023-05-10T08:31:23;29.80;72.80
8684;DHT22;4379;59.744;18.206;2023-05-10T08:33:52;31.50;70.40
8684;DHT22;4379;59.744;18.206;2023-05-10T08:36:19;29.60;71.50
8684;DHT22;4379;59.744;18.206;2023-05-10T08:38:51;30.10;70.40
8684;DHT22;4379;59.744;18.206;2023-05-10T08:41:22;29.80;71.00
8684;DHT22;4379;59.744;18.206;2023-05-10T08:43:54;29.30;71.60
8684;DHT22;4379;59.744;18.206;2023-05-10T08:46:22;30.00;70.90
8684;DHT22;4379;59.744;18.206;2023-05-10T08:48:51;28.50;72.80
8684;DHT22;4379;59.744;18.206;2023-05-10T08:51:22;28.90;71.80
8684;DHT22;4379;59.744;18.206;2023-05-10T08:53:52;27.60;71.50
8684;DHT22;4379;59.744;18.206;2023-05-10T08:56:20;25.80;72.10
8684;DHT22;4379;59.744;18.206;2023-05-10T08:59:00;25.30;75.50
8684;DHT22;4379;59.744;18.206;2023-05-10T09:01:29;24.70;78.30
8684;DHT22;4379;59.744;18.206;2023-05-10T09:03:59;24.10;75.30
8684;DHT22;4379;59.744;18.206;2023-05-10T09:06:27;23.80;75.80
8684;DHT22;4379;59.744;18.206;2023-05-10T09:08:56;24.50;79.10
8684;DHT22;4379;59.744;18.206;2023-05-10T09:11:25;24.70;77.40
8684;DHT22;4379;59.744;18.206;2023-05-10T09:13:53;24.80;78.20
8684;DHT22;4379;59.744;18.206;2023-05-10T09:16:21;24.30;76.40
8684;DHT22;4379;59.744;18.206;2023-05-10T09:18:48;24.00;76.80
8684;DHT22;4379;59.744;18.206;2023-05-10T09:21:16;24.30;75.70
8684;DHT22;4379;59.744;18.206;2023-05-10T09:23:48;23.60;77.30
8684;DHT22;4379;59.744;18.206;2023-05-10T09:26:17;23.70;78.90
8684;DHT22;4379;59.744;18.206;2023-05-10T09:28:53;22.90;77.10
8684;DHT22;4379;59.744;18.206;2023-05-10T09:31:23;22.40;76.90
8684;DHT22;4379;59.744;18.206;2023-05-10T09:33:57;22.30;79.50
8684;DHT22;4379;59.744;18.206;2023-05-10T09:36:24;22.50;78.20
8684;DHT22;4379;59.744;18.206;2023-05-10T09:38:52;22.00;78.50
8684;DHT22;4379;59.744;18.206;2023-05-10T09:41:23;22.40;79.30
8684;DHT22;4379;59.744;18.206;2023-05-10T09:43:56;22.70;79.40
8684;DHT22;4379;59.744;18.206;2023-05-10T09:46:23;21.80;81.90
8684;DHT22;4379;59.744;18.206;2023-05-10T09:48:52;22.40;82.40
8684;DHT22;4379;59.744;18.206;2023-05-10T09:51:23;22.30;81.30
8684;DHT22;4379;59.744;18.206;2023-05-10T09:54:15;22.20;80.60
8684;DHT22;4379;59.744;18.206;2023-05-10T09:56:43;22.10;80.40
8684;DHT22;4379;59.744;18.206;2023-05-10T09:59:11;22.20;80.80
8684;DHT22;4379;59.744;18.206;2023-05-10T10:01:39;22.50;80.50
8684;DHT22;4379;59.744;18.206;2023-05-10T10:04:09;23.10;81.30
8684;DHT22;4379;59.744;18.206;2023-05-10T10:07:02;22.70;79.30
8684;DHT22;4379;59.744;18.206;2023-05-10T10:09:32;22.10;78.70
8684;DHT22;4379;59.744;18.206;2023-05-10T10:12:06;22.40;82.10
8684;DHT22;4379;59.744;18.206;2023-05-10T10:14:34;22.90;80.50
8684;DHT22;4379;59.744;18.206;2023-05-10T10:17:02;22.90;79.10
8684;DHT22;4379;59.744;18.206;2023-05-10T10:19:35;22.20;79.20
8684;DHT22;4379;59.744;18.206;2023-05-10T10:22:04;22.00;79.80
8684;DHT22;4379;59.744;18.206;2023-05-10T10:24:34;22.00;79.50
8684;DHT22;4379;59.744;18.206;2023-05-10T10:35:46;22.10;78.10
8684;DHT22;4379;59.744;18.206;2023-05-10T10:38:14;22.40;77.90
8684;DHT22;4379;59.744;18.206;2023-05-10T10:40:47;22.20;79.90
8684;DHT22;4379;59.744;18.206;2023-05-10T10:43:23;22.00;78.30
8684;DHT22;4379;59.744;18.206;2023-05-10T10:46:14;22.40;78.70
8684;DHT22;4379;59.744;18.206;2023-05-10T10:48:47;22.60;77.90
8684;DHT22;4379;59.744;18.206;2023-05-10T10:51:15;22.60;77.40
8684;DHT22;4379;59.744;18.206;2023-05-10T10:53:43;22.60;78.40
8684;DHT22;4379;59.744;18.206;2023-05-10T10:56:12;23.00;76.70
8684;DHT22;4379;59.744;18.206;2023-05-10T10:58:49;22.60;77.40
8684;DHT22;4379;59.744;18.206;2023-05-10T11:01:21;22.20;77.10
8684;DHT22;4379;59.744;18.206;2023-05-10T11:06:36;21.80;78.20
8684;DHT22;4379;59.744;18.206;2023-05-10T11:09:08;21.70;79.20
8684;DHT22;4379;59.744;18.206;2023-05-10T11:12:07;22.10;76.50
8684;DHT22;4379;59.744;18.206;2023-05-10T11:14:35;22.20;75.60
8684;DHT22;4379;59.744;18.206;2023-05-10T11:17:26;22.30;77.10
8684;DHT22;4379;59.744;18.206;2023-05-10T11:20:10;22.30;77.10
8684;DHT22;4379;59.744;18.206;2023-05-10T11:22:54;22.10;77.50
8684;DHT22;4379;59.744;18.206;2023-05-10T11:25:28;22.10;74.50
8684;DHT22;4379;59.744;18.206;2023-05-10T11:27:56;22.10;75.50
8684;DHT22;4379;59.744;18.206;2023-05-10T11:30:24;21.30;75.70
8684;DHT22;4379;59.744;18.206;2023-05-10T11:32:52;20.90;77.30
8684;DHT22;4379;59.744;18.206;2023-05-10T11:35:20;20.50;75.60
8684;DHT22;4379;59.744;18.206;2023-05-10T11:37:51;20.70;78.10
8684;DHT22;4379;59.744;18.206;2023-05-10T11:40:21;21.00;77.50
8684;DHT22;4379;59.744;18.206;2023-05-10T11:42:48;21.20;76.50
8684;DHT22;4379;59.744;18.206;2023-05-10T11:45:16;21.20;78.50
8684;DHT22;4379;59.744;18.206;2023-05-10T11:47:44;21.70;77.80
8684;DHT22;4379;59.744;18.206;2023-05-10T11:50:12;21.40;76.50
8684;DHT22;4379;59.744;18.206;2023-05-10T11:52:39;21.30;76.60
8684;DHT22;4379;59.744;18.206;2023-05-10T11:55:07;21.50;76.90
8684;DHT22;4379;59.744;18.206;2023-05-10T11:57:35;21.30;77.90
8684;DHT22;4379;59.744;18.206;2023-05-10T12:00:06;21.70;78.00
8684;DHT22;4379;59.744;18.206;2023-05-10T12:02:36;21.40;75.20
8684;DHT22;4379;59.744;18.206;2023-05-10T12:05:04;21.30;78.40
8684;DHT22;4379;59.744;18.206;2023-05-10T12:07:33;20.60;77.40
8684;DHT22;4379;59.744;18.206;2023-05-10T12:10:11;20.80;77.90
8684;DHT22;4379;59.744;18.206;2023-05-10T12:12:44;20.50;79.00
8684;DHT22;4379;59.744;18.206;2023-05-10T12:15:20;20.70;78.80
8684;DHT22;4379;59.744;18.206;2023-05-10T12:17:49;20.70;78.90
8684;DHT22;4379;59.744;18.206;2023-05-10T12:20:18;20.30;78.40
8684;DHT22;4379;59.744;18.206;2023-05-10T12:22:55;20.50;81.30
8684;DHT22;4379;59.744;18.206;2023-05-10T12:25:30;20.60;78.80
8684;DHT22;4379;59.744;18.206;2023-05-10T12:27:59;20.70;77.50
8684;DHT22;4379;59.744;18.206;2023-05-10T12:30:32;20.60;79.50
8684;DHT22;4379;59.744;18.206;2023-05-10T12:33:08;20.50;80.40
8684;DHT22;4379;59.744;18.206;2023-05-10T12:35:48;20.50;78.20
8684;DHT22;4379;59.744;18.206;2023-05-10T12:38:34;20.50;79.80
8684;DHT22;4379;59.744;18.206;2023-05-10T12:41:04;20.20;80.30
8684;DHT22;4379;59.744;18.206;2023-05-10T12:43:33;20.10;78.50
8684;DHT22;4379;59.744;18.206;2023-05-10T12:46:16;20.20;78.00
8684;DHT22;4379;59.744;18.206;2023-05-10T12:48:45;20.00;78.60
8684;DHT22;4379;59.744;18.206;2023-05-10T12:51:13;19.70;78.30
8684;DHT22;4379;59.744;18.206;2023-05-10T12:53:44;19.60;80.00
8684;DHT22;4379;59.744;18.206;2023-05-10T12:56:16;19.40;78.70
8684;DHT22;4379;59.744;18.206;2023-05-10T12:58:44;19.50;80.00
8684;DHT22;4379;59.744;18.206;2023-05-10T13:01:15;19.60;78.30
8684;DHT22;4379;59.744;18.206;2023-05-10T13:03:45;19.60;80.40
8684;DHT22;4379;59.744;18.206;2023-05-10T13:06:14;19.70;78.10
8684;DHT22;4379;59.744;18.206;2023-05-10T13:08:41;19.50;80.20
8684;DHT22;4379;59.744;18.206;2023-05-10T13:11:09;19.80;80.00
8684;DHT22;4379;59.744;18.206;2023-05-10T13:13:36;19.50;78.90
8684;DHT22;4379;59.744;18.206;2023-05-10T13:16:04;19.40;78.90
8684;DHT22;4379;59.744;18.206;2023-05-10T13:18:32;19.30;80.50
8684;DHT22;4379;59.744;18.206;2023-05-10T13:21:00;19.30;80.30
8684;DHT22;4379;59.744;18.206;2023-05-10T13:23:29;19.00;79.30
8684;DHT22;4379;59.744;18.206;2023-05-10T13:25:57;19.10;81.90
8684;DHT22;4379;59.744;18.206;2023-05-10T13:28:24;19.10;81.20
8684;DHT22;4379;59.744;18.206;2023-05-10T13:30:53;19.20;81.30
8684;DHT22;4379;59.744;18.206;2023-05-10T13:33:20;19.40;82.20
8684;DHT22;4379;59.744;18.206;2023-05-10T13:35:48;19.50;80.70
8684;DHT22;4379;59.744;18.206;2023-05-10T13:38:16;19.50;80.30
8684;DHT22;4379;59.744;18.206;2023-05-10T13:40:47;19.60;81.30
8684;DHT22;4379;59.744;18.206;2023-05-10T13:43:15;19.30;82.20
8684;DHT22;4379;59.744;18.206;2023-05-10T13:45:42;19.50;82.30
8684;DHT22;4379;59.744;18.206;2023-05-10T13:48:10;19.40;79.70
8684;DHT22;4379;59.744;18.206;2023-05-10T13:50:50;19.20;81.50
8684;DHT22;4379;59.744;18.206;2023-05-10T13:53:17;19.20;80.50
8684;DHT22;4379;59.744;18.206;2023-05-10T13:55:45;18.80;82.50
8684;DHT22;4379;59.744;18.206;2023-05-10T13:58:13;18.60;81.20
8684;DHT22;4379;59.744;18.206;2023-05-10T14:00:41;18.70;82.20
8684;DHT22;4379;59.744;18.206;2023-05-10T14:03:08;18.80;83.00
8684;DHT22;4379;59.744;18.206;2023-05-10T14:05:38;19.00;82.40
8684;DHT22;4379;59.744;18.206;2023-05-10T14:08:06;19.20;82.50
8684;DHT22;4379;59.744;18.206;2023-05-10T14:10:34;19.10;81.90
8684;DHT22;4379;59.744;18.206;2023-05-10T14:13:02;19.10;82.70
8684;DHT22;4379;59.744;18.206;2023-05-10T14:15:30;19.10;81.90
8684;DHT22;4379;59.744;18.206;2023-05-10T14:17:58;19.30;82.90
8684;DHT22;4379;59.744;18.206;2023-05-10T14:20:26;19.10;81.90
8684;DHT22;4379;59.744;18.206;2023-05-10T14:22:54;18.80;80.90
8684;DHT22;4379;59.744;18.206;2023-05-10T14:25:21;18.80;82.80
8684;DHT22;4379;59.744;18.206;2023-05-10T14:27:49;18.50;80.40
8684;DHT22;4379;59.744;18.206;2023-05-10T14:30:17;18.40;82.50
8684;DHT22;4379;59.744;18.206;2023-05-10T14:32:46;18.30;82.60
8684;DHT22;4379;59.744;18.206;2023-05-10T14:35:14;18.20;81.00
8684;DHT22;4379;59.744;18.206;2023-05-10T14:37:45;18.30;80.60
8684;DHT22;4379;59.744;18.206;2023-05-10T14:40:13;18.30;82.20
8684;DHT22;4379;59.744;18.206;2023-05-10T14:42:42;18.10;80.50
8684;DHT22;4379;59.744;18.206;2023-05-10T14:45:30;18.00;81.50
8684;DHT22;4379;59.744;18.206;2023-05-10T14:47:58;18.10;81.30
8684;DHT22;4379;59.744;18.206;2023-05-10T14:50:26;18.00;82.00
8684;DHT22;4379;59.744;18.206;2023-05-10T14:53:22;18.10;82.70
8684;DHT22;4379;59.744;18.206;2023-05-10T14:55:54;18.40;82.80
8684;DHT22;4379;59.744;18.206;2023-05-10T14:58:21;18.30;81.10
8684;DHT22;4379;59.744;18.206;2023-05-10T15:00:57;18.00;82.00
8684;DHT22;4379;59.744;18.206;2023-05-10T15:03:27;17.80;81.40
8684;DHT22;4379;59.744;18.206;2023-05-10T15:05:56;17.70;81.70
8684;DHT22;4379;59.744;18.206;2023-05-10T15:08:25;17.80;82.20
8684;DHT22;4379;59.744;18.206;2023-05-10T15:10:52;17.90;82.10
8684;DHT22;4379;59.744;18.206;2023-05-10T15:13:22;17.90;81.60
8684;DHT22;4379;59.744;18.206;2023-05-10T15:15:52;17.90;81.10
8684;DHT22;4379;59.744;18.206;2023-05-10T15:18:19;17.90;80.90
8684;DHT22;4379;59.744;18.206;2023-05-10T15:20:47;18.00;82.40
8684;DHT22;4379;59.744;18.206;2023-05-10T15:23:15;18.10;82.70
8684;DHT22;4379;59.744;18.206;2023-05-10T15:25:43;18.20;81.60
8684;DHT22;4379;59.744;18.206;2023-05-10T15:28:11;18.20;82.50
8684;DHT22;4379;59.744;18.206;2023-05-10T15:30:38;18.10;83.10
8684;DHT22;4379;59.744;18.206;2023-05-10T15:33:06;17.90;83.10
8684;DHT22;4379;59.744;18.206;2023-05-10T15:35:35;17.80;82.70
8684;DHT22;4379;59.744;18.206;2023-05-10T15:38:06;17.60;83.60
8684;DHT22;4379;59.744;18.206;2023-05-10T15:40:34;17.40;84.00
8684;DHT22;4379;59.744;18.206;2023-05-10T15:43:02;17.50;84.40
8684;DHT22;4379;59.744;18.206;2023-05-10T15:45:30;17.40;83.80
8684;DHT22;4379;59.744;18.206;2023-05-10T15:47:58;17.50;85.40
8684;DHT22;4379;59.744;18.206;2023-05-10T15:50:26;17.40;83.30
8684;DHT22;4379;59.744;18.206;2023-05-10T15:52:54;17.50;84.40
8684;DHT22;4379;59.744;18.206;2023-05-10T15:55:22;17.30;82.60
8684;DHT22;4379;59.744;18.206;2023-05-10T15:57:49;17.20;82.90
8684;DHT22;4379;59.744;18.206;2023-05-10T16:00:17;17.10;84.00
8684;DHT22;4379;59.744;18.206;2023-05-10T16:02:45;17.10;82.10
8684;DHT22;4379;59.744;18.206;2023-05-10T16:05:12;17.10;83.50
8684;DHT22;4379;59.744;18.206;2023-05-10T16:07:43;17.10;83.00
8684;DHT22;4379;59.744;18.206;2023-05-10T16:10:10;16.80;82.00
8684;DHT22;4379;59.744;18.206;2023-05-10T16:12:38;16.80;83.00
8684;DHT22;4379;59.744;18.206;2023-05-10T16:15:07;16.70;82.80
8684;DHT22;4379;59.744;18.206;2023-05-10T16:17:35;16.60;83.50
8684;DHT22;4379;59.744;18.206;2023-05-10T16:20:06;16.60;83.20
8684;DHT22;4379;59.744;18.206;2023-05-10T16:22:34;16.60;82.70
8684;DHT22;4379;59.744;18.206;2023-05-10T16:25:02;16.50;83.60
8684;DHT22;4379;59.744;18.206;2023-05-10T16:27:30;16.40;82.60
8684;DHT22;4379;59.744;18.206;2023-05-10T16:29:59;16.30;83.20
8684;DHT22;4379;59.744;18.206;2023-05-10T16:32:30;16.20;83.80
8684;DHT22;4379;59.744;18.206;2023-05-10T16:35:01;16.20;83.80
8684;DHT22;4379;59.744;18.206;2023-05-10T16:37:30;16.30;84.60